Merizo, Guam
Current Conditions -  °F | °C
As of 8:54 AM on Thursday 23 Oct 2014 (Local Time) from PGUM Reporting Station
Light Rain Light Rain  
Wind Chill: 78°   Ceiling: 3500
Heat Index: 81°   Visibility: 10mi
Dew Point: 75°   Wind: 9mph
Humidity: 90%   Direction: 40°NE
Pressure: 29.87"   Gusts: NA
Location:  13.26°N, 144.67°E
Report Text: PGUM 222254Z 04008KT 10SM -RA FEW007 SCT022 BKN035 26/24 A2987 RMK AO2 RAE27B51 SLP106 P0016 T02560239
Loading
Personal Weather Stations






























Interactive Weather Map
Tropical Storm Tracking
New forecast layout! Learn more

10-Day Weather Forecast

Advertisements
Track Severe Weather on mobile